sensor_id;sensor_type;location;lat;lon;timestamp;P1;durP1;ratioP1;P2;durP2;ratioP2
4074;SDS011;2052;53.522;9.806;2023-02-01T00:00:27;25.00;;;4.40;;
4074;SDS011;2052;53.522;9.806;2023-02-01T00:02:53;35.77;;;5.77;;
4074;SDS011;2052;53.522;9.806;2023-02-01T00:05:21;29.90;;;5.83;;
4074;SDS011;2052;53.522;9.806;2023-02-01T00:07:47;27.73;;;5.60;;
4074;SDS011;2052;53.522;9.806;2023-02-01T00:10:14;22.77;;;4.87;;
4074;SDS011;2052;53.522;9.806;2023-02-01T00:12:40;14.37;;;5.13;;
4074;SDS011;2052;53.522;9.806;2023-02-01T00:15:09;33.73;;;5.60;;
4074;SDS011;2052;53.522;9.806;2023-02-01T00:17:35;36.87;;;6.10;;
4074;SDS011;2052;53.522;9.806;2023-02-01T00:20:02;24.63;;;4.30;;
4074;SDS011;2052;53.522;9.806;2023-02-01T00:22:29;23.83;;;5.20;;
4074;SDS011;2052;53.522;9.806;2023-02-01T00:24:56;26.10;;;6.87;;
4074;SDS011;2052;53.522;9.806;2023-02-01T00:27:22;22.27;;;5.73;;
4074;SDS011;2052;53.522;9.806;2023-02-01T00:29:49;23.77;;;5.07;;
4074;SDS011;2052;53.522;9.806;2023-02-01T00:32:17;28.73;;;6.50;;
4074;SDS011;2052;53.522;9.806;2023-02-01T00:34:43;30.87;;;6.33;;
4074;SDS011;2052;53.522;9.806;2023-02-01T00:37:10;26.80;;;6.20;;
4074;SDS011;2052;53.522;9.806;2023-02-01T00:39:36;22.73;;;6.53;;
4074;SDS011;2052;53.522;9.806;2023-02-01T00:42:03;16.60;;;5.20;;
4074;SDS011;2052;53.522;9.806;2023-02-01T00:44:30;25.07;;;4.73;;
4074;SDS011;2052;53.522;9.806;2023-02-01T00:46:59;23.13;;;5.70;;
4074;SDS011;2052;53.522;9.806;2023-02-01T00:49:27;32.67;;;5.73;;
4074;SDS011;2052;53.522;9.806;2023-02-01T00:51:54;30.70;;;5.37;;
4074;SDS011;2052;53.522;9.806;2023-02-01T00:54:21;32.87;;;6.10;;
4074;SDS011;2052;53.522;9.806;2023-02-01T00:56:47;29.90;;;6.97;;
4074;SDS011;2052;53.522;9.806;2023-02-01T00:59:14;35.60;;;7.47;;
4074;SDS011;2052;53.522;9.806;2023-02-01T01:01:41;44.10;;;6.70;;
4074;SDS011;2052;53.522;9.806;2023-02-01T01:04:07;33.77;;;6.00;;
4074;SDS011;2052;53.522;9.806;2023-02-01T01:06:35;34.33;;;5.47;;
4074;SDS011;2052;53.522;9.806;2023-02-01T01:09:02;34.57;;;5.67;;
4074;SDS011;2052;53.522;9.806;2023-02-01T01:11:30;26.50;;;5.67;;
4074;SDS011;2052;53.522;9.806;2023-02-01T01:13:58;19.30;;;5.33;;
4074;SDS011;2052;53.522;9.806;2023-02-01T01:16:26;29.53;;;5.20;;
4074;SDS011;2052;53.522;9.806;2023-02-01T01:18:54;23.80;;;6.67;;
4074;SDS011;2052;53.522;9.806;2023-02-01T01:21:20;16.70;;;5.90;;
4074;SDS011;2052;53.522;9.806;2023-02-01T01:23:48;32.43;;;6.20;;
4074;SDS011;2052;53.522;9.806;2023-02-01T01:26:15;27.43;;;4.83;;
4074;SDS011;2052;53.522;9.806;2023-02-01T01:28:43;38.87;;;8.47;;
4074;SDS011;2052;53.522;9.806;2023-02-01T01:31:10;30.33;;;6.33;;
4074;SDS011;2052;53.522;9.806;2023-02-01T01:33:37;29.90;;;7.43;;
4074;SDS011;2052;53.522;9.806;2023-02-01T01:36:04;29.17;;;5.80;;
4074;SDS011;2052;53.522;9.806;2023-02-01T01:38:31;23.23;;;5.23;;
4074;SDS011;2052;53.522;9.806;2023-02-01T01:40:59;30.27;;;5.53;;
4074;SDS011;2052;53.522;9.806;2023-02-01T01:46:14;36.37;;;6.30;;
4074;SDS011;2052;53.522;9.806;2023-02-01T01:48:42;30.17;;;6.83;;
4074;SDS011;2052;53.522;9.806;2023-02-01T01:51:09;26.43;;;5.90;;
4074;SDS011;2052;53.522;9.806;2023-02-01T01:53:37;28.50;;;6.87;;
4074;SDS011;2052;53.522;9.806;2023-02-01T01:56:07;28.00;;;5.90;;
4074;SDS011;2052;53.522;9.806;2023-02-01T01:58:34;19.17;;;5.53;;
4074;SDS011;2052;53.522;9.806;2023-02-01T02:01:02;22.40;;;5.80;;
4074;SDS011;2052;53.522;9.806;2023-02-01T02:03:30;30.43;;;6.47;;
4074;SDS011;2052;53.522;9.806;2023-02-01T02:05:59;37.53;;;6.07;;
4074;SDS011;2052;53.522;9.806;2023-02-01T02:08:27;44.53;;;6.80;;
4074;SDS011;2052;53.522;9.806;2023-02-01T02:10:54;40.67;;;7.73;;
4074;SDS011;2052;53.522;9.806;2023-02-01T02:13:29;35.00;;;5.37;;
4074;SDS011;2052;53.522;9.806;2023-02-01T02:16:02;23.97;;;5.57;;
4074;SDS011;2052;53.522;9.806;2023-02-01T02:18:35;29.77;;;5.83;;
4074;SDS011;2052;53.522;9.806;2023-02-01T02:21:15;23.67;;;6.47;;
4074;SDS011;2052;53.522;9.806;2023-02-01T02:23:56;30.10;;;8.83;;
4074;SDS011;2052;53.522;9.806;2023-02-01T02:26:46;37.60;;;6.50;;
4074;SDS011;2052;53.522;9.806;2023-02-01T02:29:29;25.00;;;5.67;;
4074;SDS011;2052;53.522;9.806;2023-02-01T02:32:23;33.83;;;6.90;;
4074;SDS011;2052;53.522;9.806;2023-02-01T02:35:01;24.33;;;6.17;;
4074;SDS011;2052;53.522;9.806;2023-02-01T02:37:34;33.00;;;5.93;;
4074;SDS011;2052;53.522;9.806;2023-02-01T02:40:06;45.07;;;8.03;;
4074;SDS011;2052;53.522;9.806;2023-02-01T02:42:37;26.67;;;6.23;;
4074;SDS011;2052;53.522;9.806;2023-02-01T02:45:25;28.37;;;6.27;;
4074;SDS011;2052;53.522;9.806;2023-02-01T02:48:13;21.20;;;5.67;;
4074;SDS011;2052;53.522;9.806;2023-02-01T02:50:46;28.70;;;5.90;;
4074;SDS011;2052;53.522;9.806;2023-02-01T02:53:35;23.83;;;5.70;;
4074;SDS011;2052;53.522;9.806;2023-02-01T02:56:22;39.97;;;6.70;;
4074;SDS011;2052;53.522;9.806;2023-02-01T02:59:07;28.70;;;5.10;;
4074;SDS011;2052;53.522;9.806;2023-02-01T03:01:53;25.43;;;5.97;;
4074;SDS011;2052;53.522;9.806;2023-02-01T03:04:37;21.60;;;6.93;;
4074;SDS011;2052;53.522;9.806;2023-02-01T03:07:12;28.00;;;5.33;;
4074;SDS011;2052;53.522;9.806;2023-02-01T03:09:40;31.13;;;6.10;;
4074;SDS011;2052;53.522;9.806;2023-02-01T03:12:07;19.90;;;4.77;;
4074;SDS011;2052;53.522;9.806;2023-02-01T03:15:09;24.07;;;6.23;;
4074;SDS011;2052;53.522;9.806;2023-02-01T03:17:38;31.07;;;7.40;;
4074;SDS011;2052;53.522;9.806;2023-02-01T03:20:06;16.33;;;4.63;;
4074;SDS011;2052;53.522;9.806;2023-02-01T03:22:35;20.17;;;4.60;;
4074;SDS011;2052;53.522;9.806;2023-02-01T03:25:04;25.33;;;3.80;;
4074;SDS011;2052;53.522;9.806;2023-02-01T03:27:32;13.53;;;3.40;;
4074;SDS011;2052;53.522;9.806;2023-02-01T03:30:02;8.17;;;2.70;;
4074;SDS011;2052;53.522;9.806;2023-02-01T03:32:32;15.93;;;3.33;;
4074;SDS011;2052;53.522;9.806;2023-02-01T03:35:20;13.37;;;3.60;;
4074;SDS011;2052;53.522;9.806;2023-02-01T03:37:53;11.37;;;3.50;;
4074;SDS011;2052;53.522;9.806;2023-02-01T03:40:22;17.43;;;3.87;;
4074;SDS011;2052;53.522;9.806;2023-02-01T03:42:51;28.27;;;4.27;;
4074;SDS011;2052;53.522;9.806;2023-02-01T03:45:22;21.03;;;4.57;;
4074;SDS011;2052;53.522;9.806;2023-02-01T03:47:52;26.73;;;6.00;;
4074;SDS011;2052;53.522;9.806;2023-02-01T03:50:21;19.07;;;4.10;;
4074;SDS011;2052;53.522;9.806;2023-02-01T03:52:50;23.00;;;5.57;;
4074;SDS011;2052;53.522;9.806;2023-02-01T03:55:21;16.23;;;4.13;;
4074;SDS011;2052;53.522;9.806;2023-02-01T03:57:50;9.07;;;3.70;;
4074;SDS011;2052;53.522;9.806;2023-02-01T04:00:20;17.37;;;3.43;;
4074;SDS011;2052;53.522;9.806;2023-02-01T04:02:47;10.73;;;4.03;;
4074;SDS011;2052;53.522;9.806;2023-02-01T04:05:14;10.13;;;3.30;;
4074;SDS011;2052;53.522;9.806;2023-02-01T04:07:41;11.87;;;4.10;;
4074;SDS011;2052;53.522;9.806;2023-02-01T04:10:10;15.87;;;3.50;;
4074;SDS011;2052;53.522;9.806;2023-02-01T04:12:38;20.20;;;5.03;;
4074;SDS011;2052;53.522;9.806;2023-02-01T04:15:05;16.23;;;3.47;;
4074;SDS011;2052;53.522;9.806;2023-02-01T04:17:33;13.83;;;3.60;;
4074;SDS011;2052;53.522;9.806;2023-02-01T04:20:00;17.07;;;6.10;;
4074;SDS011;2052;53.522;9.806;2023-02-01T04:22:26;18.13;;;4.50;;
4074;SDS011;2052;53.522;9.806;2023-02-01T04:24:53;17.90;;;4.00;;
4074;SDS011;2052;53.522;9.806;2023-02-01T04:27:21;15.50;;;4.33;;
4074;SDS011;2052;53.522;9.806;2023-02-01T04:29:48;23.43;;;4.37;;
4074;SDS011;2052;53.522;9.806;2023-02-01T04:32:15;15.80;;;4.07;;
4074;SDS011;2052;53.522;9.806;2023-02-01T04:34:42;13.83;;;4.10;;
4074;SDS011;2052;53.522;9.806;2023-02-01T04:37:08;11.43;;;4.23;;
4074;SDS011;2052;53.522;9.806;2023-02-01T04:39:35;10.23;;;3.40;;
4074;SDS011;2052;53.522;9.806;2023-02-01T04:42:01;7.87;;;3.37;;
4074;SDS011;2052;53.522;9.806;2023-02-01T04:44:30;6.80;;;2.80;;
4074;SDS011;2052;53.522;9.806;2023-02-01T04:46:56;16.63;;;3.47;;
4074;SDS011;2052;53.522;9.806;2023-02-01T04:49:23;12.10;;;3.50;;
4074;SDS011;2052;53.522;9.806;2023-02-01T04:51:51;17.27;;;3.70;;
4074;SDS011;2052;53.522;9.806;2023-02-01T04:54:18;9.80;;;3.30;;
4074;SDS011;2052;53.522;9.806;2023-02-01T04:56:44;18.03;;;5.50;;
4074;SDS011;2052;53.522;9.806;2023-02-01T04:59:11;7.23;;;3.30;;
4074;SDS011;2052;53.522;9.806;2023-02-01T05:01:39;9.20;;;2.30;;
4074;SDS011;2052;53.522;9.806;2023-02-01T05:04:06;5.50;;;2.50;;
4074;SDS011;2052;53.522;9.806;2023-02-01T05:06:32;10.90;;;1.93;;
4074;SDS011;2052;53.522;9.806;2023-02-01T05:08:59;4.10;;;1.60;;
4074;SDS011;2052;53.522;9.806;2023-02-01T05:11:25;7.37;;;1.83;;
4074;SDS011;2052;53.522;9.806;2023-02-01T05:14:10;4.07;;;1.83;;
4074;SDS011;2052;53.522;9.806;2023-02-01T05:16:37;2.30;;;1.00;;
4074;SDS011;2052;53.522;9.806;2023-02-01T05:19:05;1.47;;;1.30;;
4074;SDS011;2052;53.522;9.806;2023-02-01T05:21:32;1.70;;;1.10;;
4074;SDS011;2052;53.522;9.806;2023-02-01T05:23:58;1.80;;;1.00;;
4074;SDS011;2052;53.522;9.806;2023-02-01T05:26:38;3.43;;;1.80;;
4074;SDS011;2052;53.522;9.806;2023-02-01T05:29:05;1.53;;;1.43;;
4074;SDS011;2052;53.522;9.806;2023-02-01T05:31:33;2.03;;;1.30;;
4074;SDS011;2052;53.522;9.806;2023-02-01T05:33:59;2.40;;;1.10;;
4074;SDS011;2052;53.522;9.806;2023-02-01T05:36:28;2.27;;;1.27;;
4074;SDS011;2052;53.522;9.806;2023-02-01T05:38:54;2.70;;;1.03;;
4074;SDS011;2052;53.522;9.806;2023-02-01T05:41:21;1.53;;;1.27;;
4074;SDS011;2052;53.522;9.806;2023-02-01T05:43:47;3.57;;;1.10;;
4074;SDS011;2052;53.522;9.806;2023-02-01T05:46:14;3.37;;;1.27;;
4074;SDS011;2052;53.522;9.806;2023-02-01T05:48:41;4.07;;;1.30;;
4074;SDS011;2052;53.522;9.806;2023-02-01T05:51:08;1.50;;;1.40;;
4074;SDS011;2052;53.522;9.806;2023-02-01T05:53:36;4.30;;;1.43;;
4074;SDS011;2052;53.522;9.806;2023-02-01T05:56:03;1.13;;;1.00;;
4074;SDS011;2052;53.522;9.806;2023-02-01T05:58:31;4.90;;;2.63;;
4074;SDS011;2052;53.522;9.806;2023-02-01T06:00:58;5.60;;;1.70;;
4074;SDS011;2052;53.522;9.806;2023-02-01T06:03:25;3.67;;;1.40;;
4074;SDS011;2052;53.522;9.806;2023-02-01T06:05:52;3.23;;;1.40;;
4074;SDS011;2052;53.522;9.806;2023-02-01T06:08:19;6.13;;;1.60;;
4074;SDS011;2052;53.522;9.806;2023-02-01T06:10:47;4.73;;;1.30;;
4074;SDS011;2052;53.522;9.806;2023-02-01T06:13:13;9.40;;;2.90;;
4074;SDS011;2052;53.522;9.806;2023-02-01T06:15:40;8.20;;;2.60;;
4074;SDS011;2052;53.522;9.806;2023-02-01T06:18:09;7.00;;;1.83;;
4074;SDS011;2052;53.522;9.806;2023-02-01T06:20:35;4.93;;;2.47;;
4074;SDS011;2052;53.522;9.806;2023-02-01T06:23:02;4.37;;;2.03;;
4074;SDS011;2052;53.522;9.806;2023-02-01T06:25:30;6.87;;;2.30;;
4074;SDS011;2052;53.522;9.806;2023-02-01T06:28:00;4.90;;;2.90;;
4074;SDS011;2052;53.522;9.806;2023-02-01T06:30:28;5.90;;;1.80;;
4074;SDS011;2052;53.522;9.806;2023-02-01T06:32:55;9.10;;;2.53;;
4074;SDS011;2052;53.522;9.806;2023-02-01T06:35:22;9.83;;;2.50;;
4074;SDS011;2052;53.522;9.806;2023-02-01T06:37:49;10.93;;;2.90;;
4074;SDS011;2052;53.522;9.806;2023-02-01T06:40:15;6.07;;;3.17;;
4074;SDS011;2052;53.522;9.806;2023-02-01T06:42:42;16.97;;;4.00;;
4074;SDS011;2052;53.522;9.806;2023-02-01T06:45:10;12.10;;;3.47;;
4074;SDS011;2052;53.522;9.806;2023-02-01T06:47:37;16.20;;;3.40;;
4074;SDS011;2052;53.522;9.806;2023-02-01T06:50:03;12.67;;;3.13;;
4074;SDS011;2052;53.522;9.806;2023-02-01T06:52:31;8.70;;;2.70;;
4074;SDS011;2052;53.522;9.806;2023-02-01T06:54:57;11.50;;;2.90;;
4074;SDS011;2052;53.522;9.806;2023-02-01T06:57:24;16.00;;;3.07;;
4074;SDS011;2052;53.522;9.806;2023-02-01T06:59:52;13.47;;;3.90;;
4074;SDS011;2052;53.522;9.806;2023-02-01T07:02:20;10.07;;;3.80;;
4074;SDS011;2052;53.522;9.806;2023-02-01T07:04:46;26.37;;;5.40;;
4074;SDS011;2052;53.522;9.806;2023-02-01T07:07:13;28.00;;;6.07;;
4074;SDS011;2052;53.522;9.806;2023-02-01T07:09:40;16.23;;;5.27;;
4074;SDS011;2052;53.522;9.806;2023-02-01T07:12:07;30.87;;;5.20;;
4074;SDS011;2052;53.522;9.806;2023-02-01T07:14:33;26.90;;;5.37;;
4074;SDS011;2052;53.522;9.806;2023-02-01T07:17:00;25.97;;;4.87;;
4074;SDS011;2052;53.522;9.806;2023-02-01T07:19:28;36.90;;;6.00;;
4074;SDS011;2052;53.522;9.806;2023-02-01T07:21:54;29.50;;;5.40;;
4074;SDS011;2052;53.522;9.806;2023-02-01T07:24:21;24.87;;;5.20;;
4074;SDS011;2052;53.522;9.806;2023-02-01T07:26:48;29.47;;;5.83;;
4074;SDS011;2052;53.522;9.806;2023-02-01T07:29:16;24.73;;;5.50;;
4074;SDS011;2052;53.522;9.806;2023-02-01T07:31:42;33.80;;;6.80;;
4074;SDS011;2052;53.522;9.806;2023-02-01T07:34:09;34.00;;;6.03;;
4074;SDS011;2052;53.522;9.806;2023-02-01T07:36:37;26.10;;;6.13;;
4074;SDS011;2052;53.522;9.806;2023-02-01T07:39:03;31.63;;;5.83;;
4074;SDS011;2052;53.522;9.806;2023-02-01T07:41:30;26.30;;;5.43;;
4074;SDS011;2052;53.522;9.806;2023-02-01T07:43:57;24.70;;;5.50;;
4074;SDS011;2052;53.522;9.806;2023-02-01T07:46:23;19.13;;;5.60;;
4074;SDS011;2052;53.522;9.806;2023-02-01T07:48:50;24.43;;;8.27;;
4074;SDS011;2052;53.522;9.806;2023-02-01T07:51:16;29.83;;;5.40;;
4074;SDS011;2052;53.522;9.806;2023-02-01T07:53:44;40.87;;;6.10;;
4074;SDS011;2052;53.522;9.806;2023-02-01T07:56:12;19.77;;;5.53;;
4074;SDS011;2052;53.522;9.806;2023-02-01T07:58:39;32.17;;;5.30;;
4074;SDS011;2052;53.522;9.806;2023-02-01T08:01:10;31.47;;;5.93;;
4074;SDS011;2052;53.522;9.806;2023-02-01T08:03:45;44.83;;;6.13;;
4074;SDS011;2052;53.522;9.806;2023-02-01T08:06:12;37.57;;;7.03;;
4074;SDS011;2052;53.522;9.806;2023-02-01T08:08:39;32.47;;;5.53;;
4074;SDS011;2052;53.522;9.806;2023-02-01T08:11:07;16.80;;;6.13;;
4074;SDS011;2052;53.522;9.806;2023-02-01T08:13:34;24.70;;;6.93;;
4074;SDS011;2052;53.522;9.806;2023-02-01T08:16:01;26.73;;;6.20;;
4074;SDS011;2052;53.522;9.806;2023-02-01T08:18:30;18.43;;;6.63;;
4074;SDS011;2052;53.522;9.806;2023-02-01T08:21:01;16.00;;;5.13;;
4074;SDS011;2052;53.522;9.806;2023-02-01T08:23:29;21.97;;;5.07;;
4074;SDS011;2052;53.522;9.806;2023-02-01T08:26:03;24.60;;;5.13;;
4074;SDS011;2052;53.522;9.806;2023-02-01T08:28:32;38.70;;;5.70;;
4074;SDS011;2052;53.522;9.806;2023-02-01T08:30:58;25.27;;;5.07;;
4074;SDS011;2052;53.522;9.806;2023-02-01T08:33:25;23.90;;;5.37;;
4074;SDS011;2052;53.522;9.806;2023-02-01T08:35:51;20.60;;;5.20;;
4074;SDS011;2052;53.522;9.806;2023-02-01T08:38:18;35.73;;;5.43;;
4074;SDS011;2052;53.522;9.806;2023-02-01T08:40:44;29.97;;;4.93;;
4074;SDS011;2052;53.522;9.806;2023-02-01T08:43:11;21.67;;;5.30;;
4074;SDS011;2052;53.522;9.806;2023-02-01T08:45:40;29.57;;;5.27;;
4074;SDS011;2052;53.522;9.806;2023-02-01T08:48:07;25.33;;;5.23;;
4074;SDS011;2052;53.522;9.806;2023-02-01T08:50:33;33.43;;;6.10;;
4074;SDS011;2052;53.522;9.806;2023-02-01T08:53:00;21.13;;;4.97;;
4074;SDS011;2052;53.522;9.806;2023-02-01T08:55:27;32.00;;;4.93;;
4074;SDS011;2052;53.522;9.806;2023-02-01T08:57:53;20.37;;;5.07;;
4074;SDS011;2052;53.522;9.806;2023-02-01T09:00:20;20.03;;;4.37;;
4074;SDS011;2052;53.522;9.806;2023-02-01T09:02:49;30.43;;;7.63;;
4074;SDS011;2052;53.522;9.806;2023-02-01T09:05:15;30.50;;;6.50;;
4074;SDS011;2052;53.522;9.806;2023-02-01T09:07:47;25.77;;;5.43;;
4074;SDS011;2052;53.522;9.806;2023-02-01T09:10:13;16.20;;;3.67;;
4074;SDS011;2052;53.522;9.806;2023-02-01T09:12:40;29.33;;;4.60;;
4074;SDS011;2052;53.522;9.806;2023-02-01T09:15:07;32.87;;;5.37;;
4074;SDS011;2052;53.522;9.806;2023-02-01T09:17:34;17.43;;;4.50;;
4074;SDS011;2052;53.522;9.806;2023-02-01T09:20:03;17.27;;;4.83;;
4074;SDS011;2052;53.522;9.806;2023-02-01T09:22:30;13.47;;;4.20;;
4074;SDS011;2052;53.522;9.806;2023-02-01T09:24:56;17.23;;;4.87;;
4074;SDS011;2052;53.522;9.806;2023-02-01T09:27:23;28.23;;;4.67;;
4074;SDS011;2052;53.522;9.806;2023-02-01T09:29:50;25.73;;;4.63;;
4074;SDS011;2052;53.522;9.806;2023-02-01T09:32:18;24.97;;;7.43;;
4074;SDS011;2052;53.522;9.806;2023-02-01T09:34:45;30.47;;;5.27;;
4074;SDS011;2052;53.522;9.806;2023-02-01T09:37:12;21.30;;;5.17;;
4074;SDS011;2052;53.522;9.806;2023-02-01T09:39:39;20.27;;;4.53;;
4074;SDS011;2052;53.522;9.806;2023-02-01T09:42:11;22.27;;;5.00;;
4074;SDS011;2052;53.522;9.806;2023-02-01T09:44:48;23.37;;;5.30;;
4074;SDS011;2052;53.522;9.806;2023-02-01T09:47:22;25.40;;;4.30;;
4074;SDS011;2052;53.522;9.806;2023-02-01T09:49:51;19.73;;;4.30;;
4074;SDS011;2052;53.522;9.806;2023-02-01T09:52:24;29.60;;;4.13;;
4074;SDS011;2052;53.522;9.806;2023-02-01T09:54:54;11.43;;;3.63;;
4074;SDS011;2052;53.522;9.806;2023-02-01T09:57:27;15.60;;;5.07;;
4074;SDS011;2052;53.522;9.806;2023-02-01T09:59:59;20.83;;;5.47;;
4074;SDS011;2052;53.522;9.806;2023-02-01T10:02:27;21.30;;;4.57;;
4074;SDS011;2052;53.522;9.806;2023-02-01T10:04:57;21.90;;;7.27;;
4074;SDS011;2052;53.522;9.806;2023-02-01T10:07:28;18.60;;;5.10;;
4074;SDS011;2052;53.522;9.806;2023-02-01T10:09:59;28.00;;;4.30;;
4074;SDS011;2052;53.522;9.806;2023-02-01T10:12:34;30.63;;;5.00;;
4074;SDS011;2052;53.522;9.806;2023-02-01T10:15:11;12.40;;;4.10;;
4074;SDS011;2052;53.522;9.806;2023-02-01T10:17:47;19.73;;;4.30;;
4074;SDS011;2052;53.522;9.806;2023-02-01T10:20:21;25.97;;;5.03;;
4074;SDS011;2052;53.522;9.806;2023-02-01T10:22:57;21.20;;;4.10;;
4074;SDS011;2052;53.522;9.806;2023-02-01T10:25:28;14.70;;;4.00;;
4074;SDS011;2052;53.522;9.806;2023-02-01T10:28:00;13.70;;;4.37;;
4074;SDS011;2052;53.522;9.806;2023-02-01T10:30:29;20.20;;;3.40;;
4074;SDS011;2052;53.522;9.806;2023-02-01T10:33:00;25.83;;;4.90;;
4074;SDS011;2052;53.522;9.806;2023-02-01T10:35:34;18.43;;;4.37;;
4074;SDS011;2052;53.522;9.806;2023-02-01T10:38:05;18.20;;;4.83;;
4074;SDS011;2052;53.522;9.806;2023-02-01T10:40:38;19.40;;;4.17;;
4074;SDS011;2052;53.522;9.806;2023-02-01T10:43:05;14.83;;;4.37;;
4074;SDS011;2052;53.522;9.806;2023-02-01T10:45:32;18.00;;;4.93;;
4074;SDS011;2052;53.522;9.806;2023-02-01T10:47:59;27.13;;;5.00;;
4074;SDS011;2052;53.522;9.806;2023-02-01T10:50:31;21.77;;;5.70;;
4074;SDS011;2052;53.522;9.806;2023-02-01T10:53:02;23.80;;;5.47;;
4074;SDS011;2052;53.522;9.806;2023-02-01T10:55:33;24.00;;;5.30;;
4074;SDS011;2052;53.522;9.806;2023-02-01T10:58:03;38.00;;;5.90;;
4074;SDS011;2052;53.522;9.806;2023-02-01T11:00:37;22.77;;;3.90;;
4074;SDS011;2052;53.522;9.806;2023-02-01T11:06:14;26.53;;;4.70;;
4074;SDS011;2052;53.522;9.806;2023-02-01T11:08:47;17.97;;;4.53;;
4074;SDS011;2052;53.522;9.806;2023-02-01T11:11:15;16.63;;;4.40;;
4074;SDS011;2052;53.522;9.806;2023-02-01T11:13:41;22.07;;;4.33;;
4074;SDS011;2052;53.522;9.806;2023-02-01T11:16:10;21.90;;;4.17;;
4074;SDS011;2052;53.522;9.806;2023-02-01T11:18:38;20.03;;;4.87;;
4074;SDS011;2052;53.522;9.806;2023-02-01T11:21:06;21.50;;;4.00;;
4074;SDS011;2052;53.522;9.806;2023-02-01T11:23:39;24.17;;;5.10;;
4074;SDS011;2052;53.522;9.806;2023-02-01T11:26:09;12.33;;;3.70;;
4074;SDS011;2052;53.522;9.806;2023-02-01T11:28:38;19.90;;;4.77;;
4074;SDS011;2052;53.522;9.806;2023-02-01T11:31:07;13.90;;;3.77;;
4074;SDS011;2052;53.522;9.806;2023-02-01T11:33:36;26.70;;;5.93;;
4074;SDS011;2052;53.522;9.806;2023-02-01T11:36:06;19.83;;;4.57;;
4074;SDS011;2052;53.522;9.806;2023-02-01T11:38:34;20.37;;;5.60;;
4074;SDS011;2052;53.522;9.806;2023-02-01T11:41:12;30.67;;;4.30;;
4074;SDS011;2052;53.522;9.806;2023-02-01T11:43:49;19.47;;;4.30;;
4074;SDS011;2052;53.522;9.806;2023-02-01T11:46:18;15.43;;;3.43;;
4074;SDS011;2052;53.522;9.806;2023-02-01T11:48:50;20.53;;;3.40;;
4074;SDS011;2052;53.522;9.806;2023-02-01T11:51:19;22.57;;;4.90;;
4074;SDS011;2052;53.522;9.806;2023-02-01T11:54:03;18.13;;;3.87;;
4074;SDS011;2052;53.522;9.806;2023-02-01T11:56:40;28.40;;;4.00;;
4074;SDS011;2052;53.522;9.806;2023-02-01T11:59:18;12.80;;;3.43;;
4074;SDS011;2052;53.522;9.806;2023-02-01T12:01:55;22.40;;;4.10;;
4074;SDS011;2052;53.522;9.806;2023-02-01T12:04:48;17.27;;;3.87;;
4074;SDS011;2052;53.522;9.806;2023-02-01T12:07:23;12.67;;;3.40;;
4074;SDS011;2052;53.522;9.806;2023-02-01T12:09:59;15.20;;;3.50;;
4074;SDS011;2052;53.522;9.806;2023-02-01T12:12:34;9.27;;;2.87;;
4074;SDS011;2052;53.522;9.806;2023-02-01T12:15:11;7.40;;;2.70;;
4074;SDS011;2052;53.522;9.806;2023-02-01T12:17:50;14.10;;;3.10;;
4074;SDS011;2052;53.522;9.806;2023-02-01T12:20:28;11.57;;;2.83;;
4074;SDS011;2052;53.522;9.806;2023-02-01T12:23:06;7.60;;;3.57;;
4074;SDS011;2052;53.522;9.806;2023-02-01T12:25:44;3.53;;;1.50;;
4074;SDS011;2052;53.522;9.806;2023-02-01T12:28:28;3.00;;;1.40;;
4074;SDS011;2052;53.522;9.806;2023-02-01T12:31:07;2.33;;;1.30;;
4074;SDS011;2052;53.522;9.806;2023-02-01T12:33:46;2.97;;;1.70;;
4074;SDS011;2052;53.522;9.806;2023-02-01T12:36:21;7.10;;;1.07;;
4074;SDS011;2052;53.522;9.806;2023-02-01T12:38:52;4.20;;;1.40;;
4074;SDS011;2052;53.522;9.806;2023-02-01T12:41:27;3.10;;;1.10;;
4074;SDS011;2052;53.522;9.806;2023-02-01T12:44:03;3.73;;;1.27;;
4074;SDS011;2052;53.522;9.806;2023-02-01T12:46:33;2.10;;;1.30;;
4074;SDS011;2052;53.522;9.806;2023-02-01T12:49:04;1.50;;;1.03;;
4074;SDS011;2052;53.522;9.806;2023-02-01T12:51:35;1.40;;;1.07;;
4074;SDS011;2052;53.522;9.806;2023-02-01T12:54:04;2.40;;;1.70;;
4074;SDS011;2052;53.522;9.806;2023-02-01T12:56:37;1.80;;;1.20;;
4074;SDS011;2052;53.522;9.806;2023-02-01T12:59:11;2.43;;;1.30;;
4074;SDS011;2052;53.522;9.806;2023-02-01T13:01:42;1.67;;;1.57;;
4074;SDS011;2052;53.522;9.806;2023-02-01T13:04:16;4.37;;;1.20;;
4074;SDS011;2052;53.522;9.806;2023-02-01T13:06:46;3.00;;;2.07;;
4074;SDS011;2052;53.522;9.806;2023-02-01T13:09:16;2.50;;;2.30;;
4074;SDS011;2052;53.522;9.806;2023-02-01T13:11:46;4.47;;;1.63;;
4074;SDS011;2052;53.522;9.806;2023-02-01T13:14:19;4.10;;;1.40;;
4074;SDS011;2052;53.522;9.806;2023-02-01T13:16:52;1.70;;;1.60;;
4074;SDS011;2052;53.522;9.806;2023-02-01T13:19:21;1.87;;;1.23;;
4074;SDS011;2052;53.522;9.806;2023-02-01T13:21:53;1.43;;;1.00;;
4074;SDS011;2052;53.522;9.806;2023-02-01T13:24:29;2.40;;;1.40;;
4074;SDS011;2052;53.522;9.806;2023-02-01T13:26:59;3.80;;;2.30;;
4074;SDS011;2052;53.522;9.806;2023-02-01T13:29:27;2.60;;;1.43;;
4074;SDS011;2052;53.522;9.806;2023-02-01T13:32:04;1.10;;;0.90;;
4074;SDS011;2052;53.522;9.806;2023-02-01T13:34:46;1.63;;;1.17;;
4074;SDS011;2052;53.522;9.806;2023-02-01T13:37:26;2.00;;;0.90;;
4074;SDS011;2052;53.522;9.806;2023-02-01T13:39:59;1.20;;;1.10;;
4074;SDS011;2052;53.522;9.806;2023-02-01T13:42:34;1.90;;;1.20;;
4074;SDS011;2052;53.522;9.806;2023-02-01T13:45:15;1.80;;;1.70;;
4074;SDS011;2052;53.522;9.806;2023-02-01T13:47:43;3.57;;;1.00;;
4074;SDS011;2052;53.522;9.806;2023-02-01T13:50:12;7.70;;;1.60;;
4074;SDS011;2052;53.522;9.806;2023-02-01T13:52:50;3.00;;;1.90;;
4074;SDS011;2052;53.522;9.806;2023-02-01T13:55:29;4.23;;;1.50;;
4074;SDS011;2052;53.522;9.806;2023-02-01T13:58:02;1.33;;;1.00;;
4074;SDS011;2052;53.522;9.806;2023-02-01T14:00:46;1.60;;;1.33;;
4074;SDS011;2052;53.522;9.806;2023-02-01T14:03:17;8.97;;;1.50;;
4074;SDS011;2052;53.522;9.806;2023-02-01T14:06:01;5.83;;;1.40;;
4074;SDS011;2052;53.522;9.806;2023-02-01T14:08:39;5.27;;;1.67;;
4074;SDS011;2052;53.522;9.806;2023-02-01T14:11:10;6.23;;;1.43;;
4074;SDS011;2052;53.522;9.806;2023-02-01T14:14:06;4.20;;;1.37;;
4074;SDS011;2052;53.522;9.806;2023-02-01T14:23:23;8.93;;;1.80;;
4074;SDS011;2052;53.522;9.806;2023-02-01T14:28:51;6.03;;;1.90;;
4074;SDS011;2052;53.522;9.806;2023-02-01T14:31:43;12.13;;;2.33;;
4074;SDS011;2052;53.522;9.806;2023-02-01T14:34:18;6.20;;;1.63;;
4074;SDS011;2052;53.522;9.806;2023-02-01T14:36:49;9.07;;;1.93;;
4074;SDS011;2052;53.522;9.806;2023-02-01T14:39:26;17.43;;;2.80;;
4074;SDS011;2052;53.522;9.806;2023-02-01T14:42:03;6.90;;;2.33;;
4074;SDS011;2052;53.522;9.806;2023-02-01T14:44:33;11.40;;;2.37;;
4074;SDS011;2052;53.522;9.806;2023-02-01T14:47:04;9.97;;;3.40;;
4074;SDS011;2052;53.522;9.806;2023-02-01T14:49:38;22.20;;;3.33;;
4074;SDS011;2052;53.522;9.806;2023-02-01T14:52:11;10.80;;;2.23;;
4074;SDS011;2052;53.522;9.806;2023-02-01T14:54:40;5.77;;;2.47;;
4074;SDS011;2052;53.522;9.806;2023-02-01T14:57:10;4.37;;;2.30;;
4074;SDS011;2052;53.522;9.806;2023-02-01T14:59:40;9.40;;;2.20;;
4074;SDS011;2052;53.522;9.806;2023-02-01T15:02:15;16.97;;;3.90;;
4074;SDS011;2052;53.522;9.806;2023-02-01T15:04:46;7.53;;;2.30;;
4074;SDS011;2052;53.522;9.806;2023-02-01T15:07:13;4.90;;;2.17;;
4074;SDS011;2052;53.522;9.806;2023-02-01T15:09:42;7.17;;;2.27;;
4074;SDS011;2052;53.522;9.806;2023-02-01T15:12:15;4.60;;;2.10;;
4074;SDS011;2052;53.522;9.806;2023-02-01T15:14:46;8.87;;;4.27;;
4074;SDS011;2052;53.522;9.806;2023-02-01T15:17:18;6.23;;;2.03;;
4074;SDS011;2052;53.522;9.806;2023-02-01T15:19:54;9.40;;;1.83;;
4074;SDS011;2052;53.522;9.806;2023-02-01T15:22:21;3.43;;;2.43;;
4074;SDS011;2052;53.522;9.806;2023-02-01T15:24:51;6.27;;;2.27;;
4074;SDS011;2052;53.522;9.806;2023-02-01T15:27:19;5.43;;;2.23;;
4074;SDS011;2052;53.522;9.806;2023-02-01T15:29:45;13.43;;;2.10;;
4074;SDS011;2052;53.522;9.806;2023-02-01T15:34:55;15.57;;;2.60;;
4074;SDS011;2052;53.522;9.806;2023-02-01T15:37:22;8.87;;;2.57;;
4074;SDS011;2052;53.522;9.806;2023-02-01T15:42:50;9.13;;;2.67;;
4074;SDS011;2052;53.522;9.806;2023-02-01T15:45:18;12.27;;;3.20;;